createdAt,value
2019-01-09T00:00:47.970Z,28.90
2019-01-09T00:03:16.568Z,36.87
2019-01-09T00:05:46.032Z,17.93
2019-01-09T00:08:14.678Z,28.50
2019-01-09T00:10:43.087Z,38.83
2019-01-09T00:13:11.532Z,38.37
2019-01-09T00:15:39.948Z,51.17
2019-01-09T00:18:08.364Z,39.93
2019-01-09T00:20:36.868Z,51.43
2019-01-09T00:23:05.520Z,61.27
2019-01-09T00:25:33.972Z,46.03
2019-01-09T00:28:02.389Z,75.83
2019-01-09T00:30:30.884Z,49.90
2019-01-09T00:32:59.396Z,48.20
2019-01-09T00:35:27.900Z,47.40
2019-01-09T00:37:56.363Z,61.50
2019-01-09T00:40:24.872Z,31.93
2019-01-09T00:42:53.632Z,45.13
2019-01-09T00:45:22.118Z,62.80
2019-01-09T00:47:50.576Z,36.00
2019-01-09T00:50:19.071Z,44.83
2019-01-09T00:52:47.624Z,42.80
2019-01-09T00:55:16.125Z,46.60
2019-01-09T00:57:44.544Z,68.10
2019-01-09T01:00:16.072Z,35.47
2019-01-09T01:03:03.788Z,49.70
2019-01-09T01:06:03.414Z,33.73
2019-01-09T01:08:51.259Z,28.83
2019-01-09T01:11:25.347Z,27.63
2019-01-09T01:14:11.712Z,49.43
2019-01-09T01:17:01.290Z,26.77
2019-01-09T01:19:47.367Z,40.13
2019-01-09T01:22:36.767Z,26.90
2019-01-09T01:25:16.763Z,45.30
2019-01-09T01:27:51.752Z,40.30
2019-01-09T01:30:46.952Z,29.07
2019-01-09T01:33:27.984Z,40.47
2019-01-09T01:36:14.427Z,45.73
2019-01-09T01:38:57.868Z,22.70
2019-01-09T01:41:32.063Z,21.80
2019-01-09T01:44:15.409Z,27.40
2019-01-09T01:47:07.727Z,23.77
2019-01-09T01:49:53.896Z,22.13
2019-01-09T01:52:27.820Z,18.03
2019-01-09T01:55:13.500Z,28.90
2019-01-09T01:57:44.998Z,40.37
2019-01-09T02:00:34.160Z,35.90
2019-01-09T02:03:20.538Z,21.47
2019-01-09T02:06:03.465Z,28.93
2019-01-09T02:08:33.945Z,37.33
2019-01-09T02:11:26.148Z,27.80
2019-01-09T02:14:04.352Z,28.77
2019-01-09T02:16:41.615Z,27.53
2019-01-09T02:19:18.828Z,41.53
2019-01-09T02:22:07.381Z,30.73
2019-01-09T02:24:59.881Z,19.40
2019-01-09T02:27:43.082Z,25.03
2019-01-09T02:30:32.216Z,25.93
2019-01-09T02:33:00.666Z,31.00
2019-01-09T02:35:29.249Z,42.23
2019-01-09T02:37:57.690Z,31.07
2019-01-09T02:40:26.147Z,31.37
2019-01-09T02:42:54.612Z,33.23
2019-01-09T02:45:23.081Z,38.00
2019-01-09T02:47:51.488Z,37.77
2019-01-09T02:50:19.930Z,48.73
2019-01-09T02:52:48.331Z,33.87
2019-01-09T02:55:16.792Z,23.10
2019-01-09T02:57:56.061Z,33.00
2019-01-09T03:00:16.243Z,27.10
2019-01-09T03:02:44.744Z,45.10
2019-01-09T03:05:13.160Z,27.40
2019-01-09T03:07:41.563Z,19.07
2019-01-09T03:10:10.001Z,41.87
2019-01-09T03:12:38.413Z,22.80
2019-01-09T03:15:07.082Z,24.87
2019-01-09T03:17:35.599Z,25.73
2019-01-09T03:20:04.765Z,47.70
2019-01-09T03:22:33.194Z,33.57
2019-01-09T03:25:01.608Z,40.83
2019-01-09T03:27:30.064Z,41.20
2019-01-09T03:29:58.479Z,69.43
2019-01-09T03:32:26.923Z,41.67
2019-01-09T03:34:55.375Z,44.10
2019-01-09T03:37:23.845Z,54.50
2019-01-09T03:39:52.298Z,49.93
2019-01-09T03:42:20.711Z,62.43
2019-01-09T03:44:49.246Z,17.50
2019-01-09T03:47:17.716Z,25.40
2019-01-09T03:49:46.409Z,24.23
2019-01-09T03:52:14.916Z,35.50
2019-01-09T03:54:43.319Z,18.80
2019-01-09T03:57:11.763Z,13.80
2019-01-09T03:59:40.192Z,20.57
2019-01-09T04:02:08.637Z,24.70
2019-01-09T04:04:37.123Z,28.67
2019-01-09T04:07:05.555Z,14.97
2019-01-09T04:09:33.995Z,18.33
2019-01-09T04:12:02.480Z,22.93
2019-01-09T04:14:30.967Z,24.23
2019-01-09T04:16:59.391Z,18.90
2019-01-09T04:19:27.808Z,24.43
2019-01-09T04:21:56.226Z,18.50
2019-01-09T04:24:24.669Z,23.17
2019-01-09T04:26:53.081Z,25.43
2019-01-09T04:29:21.486Z,31.50
2019-01-09T04:31:49.912Z,9.70
2019-01-09T04:34:18.318Z,23.37
2019-01-09T04:36:51.284Z,26.00
2019-01-09T04:39:16.901Z,15.80
2019-01-09T04:41:46.263Z,16.20
2019-01-09T04:44:14.842Z,25.67
2019-01-09T04:46:43.288Z,19.83
2019-01-09T04:49:11.742Z,23.67
2019-01-09T04:51:40.176Z,30.60
2019-01-09T04:54:08.587Z,26.90
2019-01-09T04:56:37.030Z,28.83
2019-01-09T04:59:05.467Z,42.17
2019-01-09T05:01:34.141Z,29.63
2019-01-09T05:04:02.577Z,26.77
2019-01-09T05:06:31.000Z,27.50
2019-01-09T05:08:59.453Z,25.37
2019-01-09T05:11:27.862Z,22.40
2019-01-09T05:13:56.303Z,19.67
2019-01-09T05:16:24.735Z,30.73
2019-01-09T05:18:53.207Z,22.40
2019-01-09T05:21:21.647Z,33.67
2019-01-09T05:23:50.060Z,21.73
2019-01-09T05:26:18.528Z,15.80
2019-01-09T05:28:46.946Z,20.83
2019-01-09T05:31:15.383Z,22.80
2019-01-09T05:33:43.807Z,22.90
2019-01-09T05:36:12.227Z,21.83
2019-01-09T05:38:40.656Z,37.10
2019-01-09T05:41:09.165Z,46.77
2019-01-09T05:43:37.643Z,31.33
2019-01-09T05:46:06.080Z,22.90
2019-01-09T05:48:34.476Z,29.73
2019-01-09T05:51:02.918Z,26.57
2019-01-09T05:53:31.319Z,24.53
2019-01-09T05:55:59.756Z,31.10
2019-01-09T05:58:28.177Z,16.83
2019-01-09T06:00:56.614Z,33.47
2019-01-09T06:03:25.028Z,18.60
2019-01-09T06:05:53.469Z,19.20
2019-01-09T06:08:21.936Z,15.53
2019-01-09T06:10:50.371Z,30.40
2019-01-09T06:13:18.817Z,30.80
2019-01-09T06:15:47.221Z,39.90
2019-01-09T06:18:17.344Z,32.23
2019-01-09T06:20:46.720Z,22.90
2019-01-09T06:23:15.171Z,35.57
2019-01-09T06:25:43.581Z,32.27
2019-01-09T06:28:11.993Z,50.70
2019-01-09T06:30:40.434Z,40.00
2019-01-09T06:33:08.867Z,34.33
2019-01-09T06:35:37.293Z,26.47
2019-01-09T06:38:05.791Z,27.67
2019-01-09T06:40:34.229Z,22.17
2019-01-09T06:43:02.758Z,24.30
2019-01-09T06:45:31.181Z,39.67
2019-01-09T06:47:59.640Z,24.63
2019-01-09T06:50:28.064Z,39.03
2019-01-09T06:52:57.950Z,39.03
2019-01-09T06:55:26.861Z,27.97
2019-01-09T06:57:58.515Z,20.33
2019-01-09T07:00:30.819Z,25.43
2019-01-09T07:03:04.249Z,16.83
2019-01-09T07:05:36.939Z,28.83
2019-01-09T07:08:07.186Z,22.00
2019-01-09T07:10:36.435Z,29.63
2019-01-09T07:13:04.983Z,12.80
2019-01-09T07:15:37.909Z,16.30
2019-01-09T07:18:08.380Z,24.57
2019-01-09T07:20:37.087Z,16.73
2019-01-09T07:23:05.823Z,18.30
2019-01-09T07:25:38.959Z,14.68
2019-01-09T07:28:13.291Z,18.97
2019-01-09T07:30:45.893Z,21.33
2019-01-09T07:33:15.601Z,15.43
2019-01-09T07:35:44.204Z,23.20
2019-01-09T07:38:14.157Z,21.33
2019-01-09T07:40:46.869Z,23.60
2019-01-09T07:43:15.754Z,18.03
2019-01-09T07:45:44.203Z,13.20
2019-01-09T07:48:15.640Z,27.77
2019-01-09T07:50:48.023Z,17.87
2019-01-09T07:53:25.295Z,21.27
2019-01-09T07:55:56.969Z,18.67
2019-01-09T07:58:29.635Z,14.43
2019-01-09T08:00:59.805Z,22.47
2019-01-09T08:03:28.260Z,14.85
2019-01-09T08:05:58.169Z,12.03
2019-01-09T08:08:30.799Z,15.80
2019-01-09T08:11:04.703Z,26.73
2019-01-09T08:13:40.316Z,39.23
2019-01-09T08:16:13.003Z,26.37
2019-01-09T08:18:44.147Z,20.75
2019-01-09T08:21:12.853Z,19.62
2019-01-09T08:23:41.272Z,23.47
2019-01-09T08:26:14.627Z,34.00
2019-01-09T08:28:47.160Z,29.33
2019-01-09T08:31:17.459Z,32.60
2019-01-09T08:33:45.789Z,23.30
2019-01-09T08:36:15.738Z,28.90
2019-01-09T08:38:48.403Z,28.77
2019-01-09T08:41:22.011Z,25.03
2019-01-09T08:43:51.898Z,23.47
2019-01-09T08:46:20.642Z,31.97
2019-01-09T08:48:51.120Z,30.27
2019-01-09T08:51:23.780Z,26.53
2019-01-09T08:53:58.236Z,23.13
2019-01-09T08:56:31.039Z,37.33
2019-01-09T08:58:59.608Z,20.07
2019-01-09T09:01:28.341Z,18.23
2019-01-09T09:03:59.634Z,33.17
2019-01-09T09:06:32.264Z,23.93
2019-01-09T09:09:06.750Z,18.00
2019-01-09T09:11:41.479Z,26.07
2019-01-09T09:14:14.658Z,22.27
2019-01-09T09:16:47.239Z,34.10
2019-01-09T09:19:15.839Z,25.30
2019-01-09T09:21:44.394Z,5.00
2019-01-09T09:24:21.389Z,31.20
2019-01-09T09:26:50.756Z,37.17
2019-01-09T09:29:23.924Z,27.63
2019-01-09T09:31:56.574Z,25.80
2019-01-09T09:34:26.964Z,34.57
2019-01-09T09:36:55.174Z,17.07
2019-01-09T09:39:25.598Z,20.60
2019-01-09T09:41:58.628Z,31.70
2019-01-09T09:44:31.459Z,24.13
2019-01-09T09:46:59.900Z,27.37
2019-01-09T09:49:28.367Z,21.57
2019-01-09T09:51:59.897Z,17.77
2019-01-09T09:54:33.141Z,10.03
2019-01-09T09:57:03.592Z,18.23
2019-01-09T09:59:31.984Z,32.87
2019-01-09T10:02:01.943Z,25.60
2019-01-09T10:04:32.743Z,25.77
2019-01-09T10:07:01.162Z,14.33
2019-01-09T10:09:29.701Z,17.17
2019-01-09T10:12:01.977Z,20.37
2019-01-09T10:14:34.345Z,24.17
2019-01-09T10:17:04.399Z,22.17
2019-01-09T10:19:32.798Z,18.10
2019-01-09T10:22:01.843Z,8.73
2019-01-09T10:24:35.566Z,22.27
2019-01-09T10:27:09.512Z,23.40
2019-01-09T10:29:45.132Z,16.10
2019-01-09T10:32:17.772Z,20.50
2019-01-09T10:34:54.970Z,42.97
2019-01-09T10:37:27.349Z,37.80
2019-01-09T10:39:59.991Z,22.47
2019-01-09T10:42:34.933Z,19.93
2019-01-09T10:45:07.585Z,20.67
2019-01-09T10:47:37.698Z,11.30
2019-01-09T10:50:08.903Z,25.07
2019-01-09T10:52:37.409Z,21.35
2019-01-09T10:55:11.555Z,13.40
2019-01-09T10:57:44.963Z,18.83
2019-01-09T11:00:20.974Z,15.80
2019-01-09T11:03:00.650Z,22.80
2019-01-09T11:05:29.499Z,24.10
2019-01-09T11:08:00.511Z,16.90
2019-01-09T11:10:33.375Z,13.67
2019-01-09T11:13:03.216Z,21.83
2019-01-09T11:15:31.949Z,22.97
2019-01-09T11:18:01.655Z,29.57
2019-01-09T11:20:34.360Z,20.27
2019-01-09T11:23:07.967Z,13.53
2019-01-09T11:25:37.793Z,12.33
2019-01-09T11:28:06.205Z,30.87
2019-01-09T11:30:36.386Z,18.43
2019-01-09T11:33:09.797Z,15.70
2019-01-09T11:35:42.618Z,22.83
2019-01-09T11:38:14.621Z,31.73
2019-01-09T11:40:42.834Z,23.83
2019-01-09T11:43:11.419Z,20.90
2019-01-09T11:45:44.705Z,26.23
2019-01-09T11:48:17.288Z,25.37
2019-01-09T11:50:47.185Z,9.70
2019-01-09T11:53:15.656Z,13.70
2019-01-09T11:55:45.239Z,30.83
2019-01-09T11:58:17.872Z,26.67
2019-01-09T12:00:47.860Z,16.17
2019-01-09T12:03:16.405Z,13.00
2019-01-09T12:05:46.263Z,10.33
2019-01-09T12:08:26.471Z,24.83
2019-01-09T12:10:55.941Z,10.28
2019-01-09T12:13:28.595Z,9.03
2019-01-09T12:18:36.945Z,22.13
2019-01-09T12:21:16.516Z,11.33
2019-01-09T12:23:44.093Z,13.83
2019-01-09T12:26:18.054Z,16.63
2019-01-09T12:26:38.005Z,14.60
2019-01-09T12:28:53.800Z,15.93
2019-01-09T12:31:18.029Z,17.20
2019-01-09T12:33:46.481Z,9.13
2019-01-09T12:36:19.261Z,6.93
2019-01-09T12:38:51.973Z,15.60
2019-01-09T12:41:21.935Z,13.63
2019-01-09T12:43:50.462Z,11.07
2019-01-09T12:46:20.872Z,17.30
2019-01-09T12:48:54.688Z,7.93
2019-01-09T12:51:27.307Z,11.07
2019-01-09T12:54:00.815Z,10.40
2019-01-09T12:56:30.724Z,17.57
2019-01-09T12:58:59.337Z,8.30
2019-01-09T13:01:30.410Z,14.47
2019-01-09T13:04:03.181Z,14.63
2019-01-09T13:06:35.955Z,19.73
2019-01-09T13:09:10.417Z,9.97
2019-01-09T13:11:42.705Z,26.43
2019-01-09T13:14:11.225Z,17.20
2019-01-09T13:16:47.458Z,11.40
2019-01-09T13:19:13.604Z,14.90
2019-01-09T13:21:46.433Z,10.55
2019-01-09T13:24:19.087Z,6.50
2019-01-09T13:26:52.512Z,18.50
2019-01-09T13:29:20.933Z,23.70
2019-01-09T13:31:49.805Z,10.10
2019-01-09T13:34:21.068Z,6.70
2019-01-09T13:36:53.949Z,8.08
2019-01-09T13:39:30.830Z,17.53
2019-01-09T13:42:03.963Z,13.87
2019-01-09T13:44:36.578Z,12.33
2019-01-09T13:47:09.753Z,11.00
2019-01-09T13:49:42.677Z,13.40
2019-01-09T13:52:08.336Z,11.53
2019-01-09T13:54:38.434Z,6.00
2019-01-09T13:57:11.037Z,11.43
2019-01-09T13:59:44.001Z,9.23
2019-01-09T14:02:12.561Z,5.53
2019-01-09T14:04:41.093Z,9.97
2019-01-09T14:07:12.607Z,5.40
2019-01-09T14:09:47.044Z,7.33
2019-01-09T14:12:19.982Z,14.98
2019-01-09T14:14:53.457Z,8.30
2019-01-09T14:17:24.716Z,11.43
2019-01-09T14:19:54.847Z,25.63
2019-01-09T14:22:23.405Z,16.33
2019-01-09T14:24:55.771Z,13.73
2019-01-09T14:27:28.269Z,10.40
2019-01-09T14:30:01.371Z,11.47
2019-01-09T14:32:38.829Z,7.27
2019-01-09T14:35:11.091Z,15.00
2019-01-09T14:37:44.199Z,9.20
2019-01-09T14:40:19.354Z,12.23
2019-01-09T14:42:52.401Z,15.27
2019-01-09T14:45:22.305Z,21.50
2019-01-09T14:47:51.165Z,14.80
2019-01-09T14:50:22.258Z,12.73
2019-01-09T14:52:59.560Z,23.23
2019-01-09T14:55:29.398Z,12.13
2019-01-09T14:58:02.244Z,9.07
2019-01-09T15:00:36.461Z,21.53
2019-01-09T15:03:09.398Z,12.20
2019-01-09T15:05:43.183Z,15.30
2019-01-09T15:08:11.727Z,9.07
2019-01-09T15:10:40.240Z,10.10
2019-01-09T15:13:10.564Z,18.87
2019-01-09T15:15:40.295Z,13.60
2019-01-09T15:18:09.242Z,11.50
2019-01-09T15:20:39.101Z,5.80
2019-01-09T15:23:11.810Z,8.30
2019-01-09T15:25:45.354Z,11.47
2019-01-09T15:28:15.129Z,10.63
2019-01-09T15:30:43.930Z,7.20
2019-01-09T15:33:13.237Z,11.87
2019-01-09T15:35:46.173Z,14.33
2019-01-09T15:38:22.122Z,9.20
2019-01-09T15:40:54.418Z,18.97
2019-01-09T15:43:31.708Z,15.77
2019-01-09T15:46:00.471Z,13.33
2019-01-09T15:48:29.016Z,16.63
2019-01-09T15:50:57.444Z,20.50
2019-01-09T15:53:25.884Z,12.43
2019-01-09T15:55:54.508Z,13.20
2019-01-09T15:58:22.913Z,13.73
2019-01-09T16:00:51.508Z,4.63
2019-01-09T16:03:19.908Z,8.50
2019-01-09T16:05:48.534Z,15.63
2019-01-09T16:08:17.272Z,8.90
2019-01-09T16:10:49.857Z,12.23
2019-01-09T16:13:23.972Z,11.30
2019-01-09T16:16:02.440Z,11.80
2019-01-09T16:18:32.844Z,14.57
2019-01-09T16:21:05.271Z,16.40
2019-01-09T16:23:34.846Z,10.23
2019-01-09T16:26:03.305Z,11.00
2019-01-09T16:28:31.734Z,19.93
2019-01-09T16:31:03.252Z,17.70
2019-01-09T16:33:31.772Z,7.77
2019-01-09T16:36:00.233Z,12.43
2019-01-09T16:38:28.808Z,11.57
2019-01-09T16:40:57.288Z,7.23
2019-01-09T16:43:25.768Z,3.70
2019-01-09T16:45:54.302Z,13.13
2019-01-09T16:48:22.712Z,24.93
2019-01-09T16:50:51.192Z,17.70
2019-01-09T16:53:19.792Z,12.67
2019-01-09T16:55:48.260Z,14.43
2019-01-09T16:58:16.857Z,14.27
2019-01-09T17:00:45.614Z,14.13
2019-01-09T17:03:14.018Z,21.27
2019-01-09T17:05:42.455Z,13.73
2019-01-09T17:08:10.979Z,8.53
2019-01-09T17:10:39.530Z,5.07
2019-01-09T17:13:07.976Z,17.30
2019-01-09T17:15:36.438Z,10.10
2019-01-09T17:18:05.933Z,12.33
2019-01-09T17:20:34.501Z,12.50
2019-01-09T17:23:02.984Z,11.63
2019-01-09T17:25:31.630Z,20.40
2019-01-09T17:28:00.090Z,11.90
2019-01-09T17:30:32.186Z,14.40
2019-01-09T17:33:00.711Z,9.17
2019-01-09T17:35:29.207Z,16.60
2019-01-09T17:37:57.732Z,8.33
2019-01-09T17:40:26.165Z,13.43
2019-01-09T17:42:55.806Z,12.23
2019-01-09T17:45:24.251Z,9.40
2019-01-09T17:47:52.744Z,21.17
2019-01-09T17:50:33.179Z,22.03
2019-01-09T17:53:03.579Z,13.37
2019-01-09T17:55:32.105Z,6.53
2019-01-09T17:58:00.705Z,10.27
2019-01-09T18:00:35.006Z,8.30
2019-01-09T18:03:03.992Z,24.77
2019-01-09T18:05:32.542Z,18.83
2019-01-09T18:08:01.077Z,7.87
2019-01-09T18:10:29.672Z,13.70
2019-01-09T18:12:58.191Z,26.17
2019-01-09T18:15:26.663Z,8.23
2019-01-09T18:17:55.141Z,10.97
2019-01-09T18:20:23.802Z,17.43
2019-01-09T18:22:52.331Z,12.20
2019-01-09T18:25:25.366Z,23.23
2019-01-09T18:27:53.974Z,17.80
2019-01-09T18:30:31.624Z,13.93
2019-01-09T18:33:05.692Z,25.73
2019-01-09T18:35:46.496Z,8.97
2019-01-09T18:38:29.512Z,17.20
2019-01-09T18:41:17.238Z,16.40
2019-01-09T18:44:07.943Z,15.03
2019-01-09T18:46:42.141Z,13.10
2019-01-09T18:49:32.932Z,19.47
2019-01-09T18:52:16.166Z,10.47
2019-01-09T18:54:44.602Z,14.10
2019-01-09T18:57:13.119Z,16.20
2019-01-09T18:59:41.521Z,17.47
2019-01-09T19:02:09.965Z,15.60
2019-01-09T19:04:40.114Z,16.43
2019-01-09T19:07:08.762Z,20.00
2019-01-09T19:09:37.189Z,24.60
2019-01-09T19:12:06.351Z,19.47
2019-01-09T19:14:34.767Z,24.13
2019-01-09T19:17:03.344Z,9.30
2019-01-09T19:19:32.001Z,17.63
2019-01-09T19:22:00.565Z,15.30
2019-01-09T19:24:29.018Z,16.97
2019-01-09T19:26:57.491Z,12.70
2019-01-09T19:29:26.032Z,6.93
2019-01-09T19:31:54.884Z,12.23
2019-01-09T19:34:23.598Z,8.43
2019-01-09T19:36:54.703Z,14.80
2019-01-09T19:39:24.260Z,13.33
2019-01-09T19:41:52.795Z,12.30
2019-01-09T19:44:21.297Z,18.10
2019-01-09T19:46:49.981Z,21.33
2019-01-09T19:49:18.513Z,15.60
2019-01-09T19:51:47.127Z,12.37
2019-01-09T19:54:15.664Z,16.48
2019-01-09T19:56:44.314Z,15.13
2019-01-09T19:59:12.905Z,10.03
2019-01-09T20:01:41.522Z,18.23
2019-01-09T20:04:10.158Z,40.67
2019-01-09T20:06:38.770Z,16.30
2019-01-09T20:09:08.178Z,25.37
2019-01-09T20:11:36.744Z,8.10
2019-01-09T20:14:05.460Z,9.23
2019-01-09T20:16:34.046Z,6.60
2019-01-09T20:19:02.608Z,10.67
2019-01-09T20:21:31.013Z,12.07
2019-01-09T20:23:59.520Z,16.03
2019-01-09T20:26:28.182Z,19.80
2019-01-09T20:29:09.643Z,5.00
2019-01-09T20:31:39.950Z,9.63
2019-01-09T20:34:15.691Z,7.93
2019-01-09T20:36:44.121Z,11.27
2019-01-09T20:39:12.870Z,11.73
2019-01-09T20:41:41.342Z,8.77
2019-01-09T20:44:09.789Z,17.00
2019-01-09T20:46:39.993Z,10.63
2019-01-09T20:49:08.473Z,12.47
2019-01-09T20:51:36.971Z,6.20
2019-01-09T20:54:05.593Z,12.93
2019-01-09T20:56:38.742Z,16.63
2019-01-09T20:59:07.239Z,11.13
2019-01-09T21:01:35.789Z,5.50
2019-01-09T21:04:04.573Z,17.07
2019-01-09T21:06:33.139Z,11.17
2019-01-09T21:09:01.685Z,13.63
2019-01-09T21:11:30.139Z,8.47
2019-01-09T21:13:58.610Z,14.70
2019-01-09T21:16:27.206Z,10.57
2019-01-09T21:18:55.721Z,14.83
2019-01-09T21:21:24.193Z,11.13
2019-01-09T21:23:52.691Z,20.20
2019-01-09T21:26:21.167Z,7.60
2019-01-09T21:28:49.604Z,14.83
2019-01-09T21:31:18.025Z,9.17
2019-01-09T21:33:46.468Z,13.72
2019-01-09T21:36:14.946Z,10.90
2019-01-09T21:38:43.451Z,16.90
2019-01-09T21:41:12.061Z,7.50
2019-01-09T21:43:40.571Z,19.57
2019-01-09T21:46:11.590Z,10.57
2019-01-09T21:48:40.065Z,7.80
2019-01-09T21:51:08.517Z,11.23
2019-01-09T21:53:36.984Z,13.10
2019-01-09T21:56:05.484Z,15.60
2019-01-09T21:58:33.905Z,16.70
2019-01-09T22:01:02.367Z,13.20
2019-01-09T22:03:30.830Z,10.23
2019-01-09T22:05:59.323Z,14.43
2019-01-09T22:08:27.940Z,11.60
2019-01-09T22:10:56.355Z,10.67
2019-01-09T22:13:24.778Z,8.77
2019-01-09T22:15:53.220Z,11.80
2019-01-09T22:18:21.796Z,15.57
2019-01-09T22:20:50.219Z,14.17
2019-01-09T22:23:18.733Z,21.83
2019-01-09T22:25:47.237Z,14.97
2019-01-09T22:28:15.676Z,12.90
2019-01-09T22:30:44.165Z,8.80
2019-01-09T22:33:12.830Z,11.20
2019-01-09T22:35:41.893Z,8.27
2019-01-09T22:38:10.340Z,7.40
2019-01-09T22:40:38.852Z,5.60
2019-01-09T22:43:07.404Z,7.63
2019-01-09T22:45:35.871Z,17.43
2019-01-09T22:48:04.392Z,10.27
2019-01-09T22:50:32.841Z,13.00
2019-01-09T22:53:08.436Z,13.20
2019-01-09T22:55:37.188Z,8.50
2019-01-09T22:58:05.609Z,9.30
2019-01-09T23:00:52.483Z,5.70
2019-01-09T23:03:21.128Z,7.53
2019-01-09T23:05:49.550Z,10.80
2019-01-09T23:08:17.964Z,21.33
2019-01-09T23:10:54.308Z,12.03
2019-01-09T23:13:16.769Z,4.83
2019-01-09T23:15:45.256Z,22.67
2019-01-09T23:18:13.803Z,13.63
2019-01-09T23:20:42.301Z,5.73
2019-01-09T23:23:10.783Z,18.83
2019-01-09T23:25:39.268Z,12.73
2019-01-09T23:28:07.741Z,17.67
2019-01-09T23:30:37.155Z,8.27
2019-01-09T23:33:05.637Z,8.30
2019-01-09T23:35:34.205Z,7.10
2019-01-09T23:38:02.622Z,17.77
2019-01-09T23:40:31.043Z,15.53
2019-01-09T23:42:59.530Z,13.40
2019-01-09T23:45:27.984Z,13.10
2019-01-09T23:47:56.413Z,15.10
2019-01-09T23:50:24.919Z,15.03
2019-01-09T23:52:53.369Z,20.80
2019-01-09T23:55:21.781Z,12.83
2019-01-09T23:57:50.182Z,4.77
